createdAt,value
2022-09-28T00:01:26.330Z,0.98
2022-09-28T00:03:58.438Z,0.43
2022-09-28T00:06:29.395Z,0.60
2022-09-28T00:08:58.552Z,0.80
2022-09-28T00:11:29.579Z,1.00
2022-09-28T00:14:02.159Z,0.75
2022-09-28T00:16:33.176Z,1.12
2022-09-28T00:19:02.141Z,0.80
2022-09-28T00:21:32.584Z,1.30
2022-09-28T00:24:17.498Z,2.08
2022-09-28T00:26:51.803Z,1.00
2022-09-28T00:29:39.615Z,0.82
2022-09-28T00:32:10.857Z,0.52
2022-09-28T00:34:45.749Z,0.62
2022-09-28T00:37:15.074Z,1.12
2022-09-28T00:39:43.503Z,0.85
2022-09-28T00:42:14.653Z,0.68
2022-09-28T00:44:42.461Z,0.60
2022-09-28T00:47:13.808Z,1.58
2022-09-28T00:49:45.615Z,0.60
2022-09-28T00:52:16.281Z,0.75
2022-09-28T00:54:46.161Z,0.90
2022-09-28T00:57:14.318Z,0.50
2022-09-28T00:59:42.433Z,1.95
2022-09-28T01:02:10.595Z,0.60
2022-09-28T01:04:38.840Z,1.10
2022-09-28T01:07:08.876Z,1.05
2022-09-28T01:09:39.130Z,0.95
2022-09-28T01:12:07.662Z,0.70
2022-09-28T01:14:35.130Z,1.30
2022-09-28T01:17:41.191Z,1.35
2022-09-28T01:20:21.109Z,0.60
2022-09-28T01:23:17.272Z,0.73
2022-09-28T01:25:47.906Z,0.65
2022-09-28T01:28:17.489Z,0.75
2022-09-28T01:30:49.773Z,0.98
2022-09-28T01:33:22.854Z,0.73
2022-09-28T01:35:55.700Z,0.82
2022-09-28T01:38:26.998Z,1.08
2022-09-28T01:40:55.564Z,0.93
2022-09-28T01:43:25.387Z,0.55
2022-09-28T01:46:00.594Z,0.60
2022-09-28T01:48:36.165Z,0.70
2022-09-28T01:53:36.551Z,0.73
2022-09-28T01:56:12.586Z,0.45
2022-09-28T01:58:52.618Z,0.60
2022-09-28T02:01:41.954Z,0.70
2022-09-28T02:04:17.217Z,1.60
2022-09-28T02:06:51.967Z,0.82
2022-09-28T02:09:24.954Z,0.93
2022-09-28T02:12:03.103Z,0.77
2022-09-28T02:14:31.831Z,1.12
2022-09-28T02:17:02.017Z,0.80
2022-09-28T02:19:31.125Z,0.57
2022-09-28T02:22:23.840Z,0.85
2022-09-28T02:25:11.132Z,1.25
2022-09-28T02:27:55.371Z,0.65
2022-09-28T02:30:23.126Z,1.10
2022-09-28T02:32:53.628Z,1.02
2022-09-28T02:35:22.144Z,0.85
2022-09-28T02:37:50.421Z,0.60
2022-09-28T02:40:22.418Z,0.50
2022-09-28T02:43:00.085Z,1.05
2022-09-28T02:45:36.837Z,0.75
2022-09-28T02:48:04.636Z,0.70
2022-09-28T02:50:46.544Z,1.00
2022-09-28T02:53:37.223Z,0.70
2022-09-28T02:56:07.577Z,1.20
2022-09-28T02:58:54.431Z,0.88
2022-09-28T03:01:51.241Z,0.70
2022-09-28T03:04:21.555Z,1.00
2022-09-28T03:06:55.260Z,0.60
2022-09-28T03:09:29.346Z,0.73
2022-09-28T03:11:59.836Z,0.75
2022-09-28T03:14:28.091Z,1.00
2022-09-28T03:16:56.308Z,1.10
2022-09-28T03:19:28.256Z,0.88
2022-09-28T03:21:56.029Z,0.62
2022-09-28T03:24:23.441Z,0.90
2022-09-28T03:26:51.027Z,0.82
2022-09-28T03:29:20.528Z,0.50
2022-09-28T03:31:49.640Z,0.77
2022-09-28T03:34:17.120Z,0.77
2022-09-28T03:36:44.849Z,0.82
2022-09-28T03:39:12.295Z,0.45
2022-09-28T03:41:39.729Z,0.95
2022-09-28T03:44:07.543Z,0.60
2022-09-28T03:46:35.083Z,0.85
2022-09-28T03:49:02.818Z,0.85
2022-09-28T03:51:30.566Z,0.82
2022-09-28T03:53:58.016Z,0.60
2022-09-28T03:56:25.989Z,0.73
2022-09-28T03:58:53.744Z,0.85
2022-09-28T04:01:21.311Z,0.90
2022-09-28T04:03:54.025Z,1.12
2022-09-28T04:06:22.643Z,1.05
2022-09-28T04:08:50.516Z,1.05
2022-09-28T04:11:18.067Z,1.10
2022-09-28T04:13:49.568Z,1.48
2022-09-28T04:16:18.565Z,1.20
2022-09-28T04:18:47.869Z,0.73
2022-09-28T04:21:17.369Z,1.15
2022-09-28T04:23:45.585Z,1.27
2022-09-28T04:26:20.333Z,1.33
2022-09-28T04:31:56.287Z,1.58
2022-09-28T04:34:25.643Z,1.45
2022-09-28T04:36:53.072Z,0.85
2022-09-28T04:39:20.505Z,1.00
2022-09-28T04:41:48.897Z,1.60
2022-09-28T04:44:16.994Z,1.58
2022-09-28T04:46:45.949Z,1.98
2022-09-28T04:49:15.568Z,1.42
2022-09-28T04:51:43.187Z,1.12
2022-09-28T04:54:10.649Z,0.90
2022-09-28T04:56:38.356Z,1.45
2022-09-28T04:59:06.201Z,1.08
2022-09-28T05:01:34.183Z,0.95
2022-09-28T05:04:05.660Z,1.42
2022-09-28T05:06:33.366Z,1.23
2022-09-28T05:09:00.896Z,0.95
2022-09-28T05:11:28.887Z,1.62
2022-09-28T05:13:56.683Z,2.00
2022-09-28T05:16:26.233Z,0.93
2022-09-28T05:18:56.038Z,1.67
2022-09-28T05:21:25.433Z,1.33
2022-09-28T05:23:56.090Z,0.70
2022-09-28T05:26:24.573Z,1.00
2022-09-28T05:28:52.031Z,1.23
2022-09-28T05:31:21.607Z,1.15
2022-09-28T05:33:49.683Z,1.37
2022-09-28T05:36:17.123Z,0.68
2022-09-28T05:38:44.619Z,1.12
2022-09-28T05:41:12.442Z,1.15
2022-09-28T05:43:39.954Z,0.93
2022-09-28T05:46:07.484Z,0.93
2022-09-28T05:48:35.814Z,1.15
2022-09-28T05:51:03.301Z,0.95
2022-09-28T05:53:30.971Z,0.98
2022-09-28T05:55:59.854Z,1.05
2022-09-28T05:58:28.481Z,1.10
2022-09-28T06:00:56.656Z,0.90
2022-09-28T06:03:25.016Z,0.85
2022-09-28T06:05:52.478Z,1.08
2022-09-28T06:08:19.978Z,1.12
2022-09-28T06:10:48.101Z,1.15
2022-09-28T06:13:15.655Z,0.80
2022-09-28T06:15:43.712Z,1.00
2022-09-28T06:18:16.431Z,0.75
2022-09-28T06:20:44.115Z,1.05
2022-09-28T06:23:13.302Z,0.95
2022-09-28T06:25:41.281Z,1.12
2022-09-28T06:28:13.432Z,1.00
2022-09-28T06:30:43.102Z,1.15
2022-09-28T06:33:15.078Z,1.25
2022-09-28T06:35:42.861Z,0.90
2022-09-28T06:38:11.024Z,0.80
2022-09-28T06:40:38.926Z,1.83
2022-09-28T06:43:12.176Z,1.02
2022-09-28T06:45:51.063Z,0.88
2022-09-28T06:48:20.218Z,0.85
2022-09-28T06:50:47.750Z,0.82
2022-09-28T06:53:17.602Z,0.85
2022-09-28T06:55:49.146Z,1.02
2022-09-28T06:58:19.768Z,0.80
2022-09-28T07:00:50.005Z,0.50
2022-09-28T07:03:22.284Z,0.70
2022-09-28T07:05:53.904Z,0.80
2022-09-28T07:08:25.921Z,1.23
2022-09-28T07:10:56.325Z,0.90
2022-09-28T07:16:19.619Z,0.90
2022-09-28T07:18:49.226Z,1.00
2022-09-28T07:21:27.809Z,0.90
2022-09-28T07:23:57.519Z,0.82
2022-09-28T07:26:26.810Z,1.67
2022-09-28T07:28:55.919Z,0.85
2022-09-28T07:31:25.281Z,0.68
2022-09-28T07:33:53.869Z,0.90
2022-09-28T07:36:22.775Z,1.05
2022-09-28T07:38:51.249Z,1.00
2022-09-28T07:41:32.127Z,0.88
2022-09-28T07:44:05.439Z,1.40
2022-09-28T07:46:34.741Z,2.00
2022-09-28T07:49:08.349Z,2.08
2022-09-28T07:51:39.567Z,1.40
2022-09-28T07:54:09.285Z,1.73
2022-09-28T07:56:37.796Z,1.50
2022-09-28T07:59:05.646Z,1.70
2022-09-28T08:01:33.924Z,1.58
2022-09-28T08:04:01.834Z,1.62
2022-09-28T08:06:30.326Z,2.10
2022-09-28T08:08:59.950Z,1.98
2022-09-28T08:11:29.636Z,1.50
2022-09-28T08:13:58.195Z,1.20
2022-09-28T08:16:27.626Z,1.92
2022-09-28T08:18:55.536Z,1.10
2022-09-28T08:21:42.079Z,1.67
2022-09-28T08:24:09.898Z,1.48
2022-09-28T08:26:37.276Z,1.42
2022-09-28T08:29:04.792Z,1.55
2022-09-28T08:31:34.328Z,1.45
2022-09-28T08:34:03.022Z,1.75
2022-09-28T08:36:31.770Z,1.50
2022-09-28T08:39:03.617Z,1.45
2022-09-28T08:41:35.284Z,1.30
2022-09-28T08:44:10.215Z,1.27
2022-09-28T08:46:42.686Z,1.80
2022-09-28T08:49:30.200Z,1.62
2022-09-28T08:52:20.636Z,1.90
2022-09-28T08:54:56.266Z,1.73
2022-09-28T08:57:31.066Z,1.70
2022-09-28T08:59:59.874Z,1.15
2022-09-28T09:02:31.356Z,1.58
2022-09-28T09:05:03.778Z,1.15
2022-09-28T09:08:00.364Z,1.50
2022-09-28T09:10:57.866Z,1.10
2022-09-28T09:13:50.552Z,1.67
2022-09-28T09:16:59.975Z,2.03
2022-09-28T09:19:57.172Z,1.77
2022-09-28T09:22:31.580Z,1.90
2022-09-28T09:25:41.302Z,1.48
2022-09-28T09:28:21.127Z,2.15
2022-09-28T09:31:10.244Z,1.45
2022-09-28T09:34:01.559Z,1.25
2022-09-28T09:37:03.324Z,1.83
2022-09-28T09:39:44.298Z,1.73
2022-09-28T09:42:35.506Z,1.90
2022-09-28T09:45:41.257Z,1.42
2022-09-28T09:48:40.269Z,1.58
2022-09-28T09:51:22.875Z,1.48
2022-09-28T09:53:59.998Z,1.60
2022-09-28T09:56:40.849Z,1.67
2022-09-28T09:59:12.065Z,1.50
2022-09-28T10:01:41.122Z,1.60
2022-09-28T10:04:19.993Z,1.40
2022-09-28T10:06:49.925Z,1.83
2022-09-28T10:09:25.076Z,1.40
2022-09-28T10:11:53.961Z,1.58
2022-09-28T10:14:24.046Z,1.70
2022-09-28T10:16:54.068Z,1.42
2022-09-28T10:19:33.855Z,1.70
2022-09-28T10:22:06.369Z,1.65
2022-09-28T10:24:45.210Z,1.08
2022-09-28T10:27:22.596Z,1.08
2022-09-28T10:30:00.990Z,1.50
2022-09-28T10:32:46.600Z,0.80
2022-09-28T10:35:29.307Z,1.33
2022-09-28T10:38:06.930Z,1.30
2022-09-28T10:41:01.973Z,1.50
2022-09-28T10:43:34.520Z,1.95
2022-09-28T10:46:15.616Z,1.25
2022-09-28T10:49:01.618Z,1.30
2022-09-28T10:51:49.957Z,1.25
2022-09-28T10:54:21.166Z,1.10
2022-09-28T10:56:50.795Z,1.20
2022-09-28T10:59:29.543Z,1.42
2022-09-28T11:02:09.900Z,1.73
2022-09-28T11:04:41.120Z,1.40
2022-09-28T11:07:18.857Z,0.95
2022-09-28T11:09:49.896Z,1.17
2022-09-28T11:12:26.340Z,1.60
2022-09-28T11:15:06.904Z,1.50
2022-09-28T11:17:40.519Z,1.52
2022-09-28T11:20:28.219Z,1.60
2022-09-28T11:23:15.811Z,1.37
2022-09-28T11:25:43.582Z,1.33
2022-09-28T11:28:22.810Z,1.40
2022-09-28T11:30:52.638Z,1.30
2022-09-28T11:33:30.734Z,1.67
2022-09-28T11:36:05.627Z,1.37
2022-09-28T11:38:39.806Z,1.20
2022-09-28T11:41:14.441Z,1.27
2022-09-28T11:44:04.402Z,1.42
2022-09-28T11:47:11.059Z,1.20
2022-09-28T11:49:45.509Z,1.20
2022-09-28T11:52:18.765Z,1.42
2022-09-28T11:54:59.270Z,1.45
2022-09-28T11:57:35.869Z,1.10
2022-09-28T12:00:12.388Z,1.27
2022-09-28T12:03:05.372Z,1.55
2022-09-28T12:05:44.676Z,1.33
2022-09-28T12:08:17.292Z,1.25
2022-09-28T12:10:53.931Z,1.30
2022-09-28T12:13:27.456Z,0.88
2022-09-28T12:16:32.682Z,1.25
2022-09-28T12:18:53.136Z,1.12
2022-09-28T12:21:39.293Z,1.00
2022-09-28T12:24:13.467Z,1.40
2022-09-28T12:26:51.081Z,1.48
2022-09-28T12:29:53.878Z,1.92
2022-09-28T12:32:31.291Z,1.80
2022-09-28T12:34:58.735Z,1.83
2022-09-28T12:37:44.624Z,1.85
2022-09-28T12:43:09.975Z,2.05
2022-09-28T12:46:11.628Z,2.03
2022-09-28T12:52:00.350Z,2.10
2022-09-28T12:54:43.125Z,1.80
2022-09-28T12:57:38.055Z,1.77
2022-09-28T13:00:13.130Z,1.75
2022-09-28T13:02:59.712Z,1.60
2022-09-28T13:05:44.000Z,1.50
2022-09-28T13:08:21.074Z,1.90
2022-09-28T13:11:07.813Z,2.62
2022-09-28T13:13:54.354Z,1.55
2022-09-28T13:16:35.496Z,1.77
2022-09-28T13:19:16.934Z,2.70
2022-09-28T13:22:32.279Z,1.70
2022-09-28T13:25:03.788Z,1.30
2022-09-28T13:27:40.564Z,1.35
2022-09-28T13:30:08.550Z,1.48
2022-09-28T13:32:37.253Z,1.30
2022-09-28T13:35:05.640Z,1.60
2022-09-28T13:37:34.436Z,1.65
2022-09-28T13:40:06.177Z,1.37
2022-09-28T13:42:47.326Z,1.20
2022-09-28T13:45:26.617Z,1.02
2022-09-28T13:48:02.897Z,1.20
2022-09-28T13:50:30.490Z,1.00
2022-09-28T13:52:57.932Z,1.20
2022-09-28T13:55:37.270Z,1.12
2022-09-28T13:58:31.490Z,1.12
2022-09-28T14:01:08.134Z,0.77
2022-09-28T14:04:03.724Z,1.02
2022-09-28T14:06:32.380Z,1.12
2022-09-28T14:09:25.071Z,1.00
2022-09-28T14:12:03.591Z,1.35
2022-09-28T14:14:50.426Z,1.45
2022-09-28T14:17:20.798Z,1.00
2022-09-28T14:19:54.345Z,0.95
2022-09-28T14:22:35.532Z,1.00
2022-09-28T14:25:03.377Z,1.20
2022-09-28T14:27:51.360Z,0.82
2022-09-28T14:30:25.738Z,0.60
2022-09-28T14:32:58.691Z,1.02
2022-09-28T14:35:38.747Z,0.75
2022-09-28T14:38:32.757Z,1.30
2022-09-28T14:41:12.616Z,1.52
2022-09-28T14:43:46.269Z,1.50
2022-09-28T14:46:14.644Z,1.50
2022-09-28T14:49:26.826Z,0.93
2022-09-28T14:51:54.746Z,1.23
2022-09-28T14:54:24.095Z,1.33
2022-09-28T14:56:57.191Z,1.50
2022-09-28T14:59:27.937Z,1.73
2022-09-28T15:02:10.638Z,1.42
2022-09-28T15:04:54.966Z,1.50
2022-09-28T15:07:29.674Z,1.75
2022-09-28T15:09:58.346Z,1.27
2022-09-28T15:12:30.575Z,1.55
2022-09-28T15:15:02.285Z,1.83
2022-09-28T15:17:40.766Z,2.00
2022-09-28T15:20:17.290Z,1.80
2022-09-28T15:22:46.903Z,2.53
2022-09-28T15:25:19.926Z,2.05
2022-09-28T15:27:55.459Z,3.12
2022-09-28T15:30:33.912Z,3.90
2022-09-28T15:33:21.231Z,2.95
2022-09-28T15:36:03.957Z,2.10
2022-09-28T15:38:34.303Z,1.85
2022-09-28T15:41:06.396Z,2.42
2022-09-28T15:43:34.359Z,2.12
2022-09-28T15:46:13.471Z,2.75
2022-09-28T15:48:51.948Z,2.33
2022-09-28T15:51:21.440Z,2.35
2022-09-28T15:53:56.063Z,2.80
2022-09-28T15:56:24.875Z,2.53
2022-09-28T15:59:18.867Z,3.45
2022-09-28T16:01:47.299Z,2.33
2022-09-28T16:04:39.950Z,2.70
2022-09-28T16:07:10.354Z,2.25
2022-09-28T16:10:01.193Z,2.65
2022-09-28T16:12:54.199Z,2.28
2022-09-28T16:15:28.210Z,3.20
2022-09-28T16:18:00.683Z,3.58
2022-09-28T16:20:35.625Z,3.15
2022-09-28T16:23:22.650Z,2.87
2022-09-28T16:26:15.988Z,2.33
2022-09-28T16:28:48.671Z,4.03
2022-09-28T16:31:19.591Z,3.75
2022-09-28T16:33:54.253Z,3.58
2022-09-28T16:36:22.742Z,2.78
2022-09-28T16:38:50.572Z,4.25
2022-09-28T16:41:22.427Z,3.08
2022-09-28T16:43:55.182Z,2.75
2022-09-28T16:46:29.351Z,2.72
2022-09-28T16:49:02.351Z,2.50
2022-09-28T16:51:29.869Z,3.28
2022-09-28T16:54:33.056Z,3.28
2022-09-28T16:57:01.024Z,5.15
2022-09-28T16:59:29.084Z,4.97
2022-09-28T17:01:57.142Z,4.35
2022-09-28T17:04:25.846Z,4.00
2022-09-28T17:06:55.315Z,3.12
2022-09-28T17:09:23.571Z,3.12
2022-09-28T17:11:57.043Z,3.80
2022-09-28T17:14:24.911Z,2.83
2022-09-28T17:17:12.701Z,2.75
2022-09-28T17:19:42.041Z,3.28
2022-09-28T17:22:10.128Z,3.42
2022-09-28T17:24:37.681Z,2.65
2022-09-28T17:27:06.968Z,1.45
2022-09-28T17:29:34.410Z,1.92
2022-09-28T17:32:02.198Z,2.00
2022-09-28T17:34:30.034Z,3.20
2022-09-28T17:36:57.519Z,2.33
2022-09-28T17:39:25.222Z,2.65
2022-09-28T17:41:53.156Z,3.95
2022-09-28T17:44:21.073Z,6.90
2022-09-28T17:46:49.619Z,7.40
2022-09-28T17:49:17.633Z,7.07
2022-09-28T17:51:45.099Z,5.45
2022-09-28T17:54:16.977Z,5.78
2022-09-28T17:56:44.781Z,3.62
2022-09-28T17:59:17.643Z,5.18
2022-09-28T18:01:45.546Z,10.48
2022-09-28T18:04:33.223Z,19.12
2022-09-28T18:07:01.122Z,12.35
2022-09-28T18:09:28.893Z,15.88
2022-09-28T18:12:01.333Z,9.10
2022-09-28T18:14:30.489Z,9.35
2022-09-28T18:16:59.782Z,6.20
2022-09-28T18:19:31.942Z,6.97
2022-09-28T18:22:01.568Z,3.80
2022-09-28T18:24:29.894Z,6.03
2022-09-28T18:26:57.923Z,5.53
2022-09-28T18:29:28.072Z,5.47
2022-09-28T18:31:58.653Z,4.50
2022-09-28T18:34:26.724Z,5.15
2022-09-28T18:36:54.895Z,4.60
2022-09-28T18:39:23.895Z,3.72
2022-09-28T18:41:51.756Z,4.10
2022-09-28T18:44:19.379Z,4.30
2022-09-28T18:46:47.106Z,3.87
2022-09-28T18:49:15.268Z,4.40
2022-09-28T18:51:42.879Z,3.28
2022-09-28T18:54:10.345Z,3.08
2022-09-28T18:56:38.279Z,3.15
2022-09-28T18:59:13.403Z,5.30
2022-09-28T19:01:41.981Z,6.85
2022-09-28T19:04:10.720Z,12.27
2022-09-28T19:06:44.397Z,12.20
2022-09-28T19:09:13.195Z,8.38
2022-09-28T19:11:41.231Z,8.45
2022-09-28T19:14:11.095Z,8.70
2022-09-28T19:16:38.961Z,5.85
2022-09-28T19:19:06.672Z,3.80
2022-09-28T19:21:35.201Z,5.20
2022-09-28T19:24:04.300Z,5.85
2022-09-28T19:26:32.901Z,4.07
2022-09-28T19:29:00.821Z,3.90
2022-09-28T19:31:29.756Z,3.78
2022-09-28T19:33:57.278Z,3.90
2022-09-28T19:36:26.214Z,4.37
2022-09-28T19:38:55.551Z,4.03
2022-09-28T19:41:45.622Z,4.32
2022-09-28T19:44:19.471Z,6.03
2022-09-28T19:46:47.072Z,4.30
2022-09-28T19:49:19.682Z,5.03
2022-09-28T19:52:11.722Z,5.40
2022-09-28T19:54:37.634Z,6.05
2022-09-28T19:57:07.879Z,5.78
2022-09-28T19:59:39.203Z,4.97
2022-09-28T20:02:07.948Z,3.50
2022-09-28T20:04:35.694Z,3.75
2022-09-28T20:07:04.409Z,4.35
2022-09-28T20:09:33.018Z,4.18
2022-09-28T20:12:00.993Z,4.90
2022-09-28T20:14:33.086Z,4.12
2022-09-28T20:17:04.194Z,4.87
2022-09-28T20:19:31.611Z,5.35
2022-09-28T20:22:03.002Z,4.45
2022-09-28T20:24:31.571Z,5.10
2022-09-28T20:26:59.409Z,6.20
2022-09-28T20:29:26.881Z,6.72
2022-09-28T20:31:54.656Z,5.80
2022-09-28T20:34:22.132Z,6.07
2022-09-28T20:36:49.620Z,5.68
2022-09-28T20:39:17.501Z,6.53
2022-09-28T20:41:46.632Z,6.30
2022-09-28T20:44:14.117Z,5.72
2022-09-28T20:46:44.103Z,6.72
2022-09-28T20:49:11.812Z,5.95
2022-09-28T20:51:39.247Z,6.25
2022-09-28T20:54:07.094Z,5.12
2022-09-28T20:56:38.143Z,4.85
2022-09-28T20:59:11.119Z,5.78
2022-09-28T21:01:39.276Z,3.95
2022-09-28T21:04:08.095Z,5.68
2022-09-28T21:06:41.556Z,4.37
2022-09-28T21:09:10.653Z,4.47
2022-09-28T21:11:38.678Z,3.85
2022-09-28T21:14:08.414Z,4.30
2022-09-28T21:16:36.367Z,5.20
2022-09-28T21:19:04.121Z,3.85
2022-09-28T21:21:31.644Z,3.65
2022-09-28T21:23:59.632Z,3.75
2022-09-28T21:26:28.759Z,3.65
2022-09-28T21:28:57.979Z,3.12
2022-09-28T21:31:29.541Z,2.97
2022-09-28T21:33:58.075Z,4.85
2022-09-28T21:36:26.084Z,5.18
2022-09-28T21:38:55.164Z,2.75
2022-09-28T21:41:23.611Z,4.47
2022-09-28T21:43:52.035Z,4.87
2022-09-28T21:46:19.603Z,6.18
2022-09-28T21:48:51.456Z,4.18
2022-09-28T21:51:19.489Z,3.87
2022-09-28T21:53:48.512Z,4.93
2022-09-28T21:56:16.045Z,4.65
2022-09-28T21:58:43.699Z,4.68
2022-09-28T22:01:25.588Z,4.93
2022-09-28T22:03:56.302Z,5.68
2022-09-28T22:06:28.131Z,4.12
2022-09-28T22:08:56.753Z,4.43
2022-09-28T22:11:26.893Z,6.40
2022-09-28T22:13:57.211Z,3.72
2022-09-28T22:16:27.684Z,4.10
2022-09-28T22:18:55.314Z,4.65
2022-09-28T22:21:25.220Z,6.30
2022-09-28T22:23:53.486Z,5.35
2022-09-28T22:26:25.235Z,4.25
2022-09-28T22:28:57.873Z,5.93
2022-09-28T22:31:29.175Z,3.90
2022-09-28T22:33:57.598Z,4.15
2022-09-28T22:36:25.945Z,4.68
2022-09-28T22:38:54.790Z,4.30
2022-09-28T22:41:22.879Z,5.95
2022-09-28T22:43:51.643Z,4.18
2022-09-28T22:46:25.106Z,5.37
2022-09-28T22:48:58.272Z,4.25
2022-09-28T22:51:27.432Z,5.05
2022-09-28T22:53:56.522Z,3.37
2022-09-28T22:56:24.553Z,3.20
2022-09-28T22:58:52.046Z,4.12
2022-09-28T23:01:22.273Z,5.03
2022-09-28T23:03:50.849Z,4.32
2022-09-28T23:06:20.243Z,3.55
2022-09-28T23:08:49.070Z,3.12
2022-09-28T23:11:16.842Z,4.50
2022-09-28T23:13:49.412Z,3.53
2022-09-28T23:16:17.375Z,4.20
2022-09-28T23:18:45.108Z,4.35
2022-09-28T23:21:15.429Z,3.10
2022-09-28T23:23:44.172Z,4.62
2022-09-28T23:26:17.602Z,4.00
2022-09-28T23:28:45.685Z,5.10
2022-09-28T23:31:16.133Z,4.30
2022-09-28T23:33:43.721Z,4.03
2022-09-28T23:36:11.941Z,4.43
2022-09-28T23:38:39.448Z,3.40
2022-09-28T23:41:07.150Z,4.85
2022-09-28T23:43:36.157Z,3.83
2022-09-28T23:46:04.506Z,2.78
2022-09-28T23:48:32.169Z,4.22
2022-09-28T23:51:00.018Z,3.50
2022-09-28T23:53:27.668Z,3.12
2022-09-28T23:55:55.199Z,4.05
2022-09-28T23:58:22.962Z,3.95
